Time;durP1;ratioP1;P1;durP2;ratioP2;P2;SDS_P1;SDS_P2;PMS_P1;PMS_P2;Temp;Humidity;BMP_temperature;BMP_pressure;BME280_temperature;BME280_humidity;BME280_pressure;Samples;Min_cycle;Max_cycle;Signal;HPM_P1;HPM_P2
2021/04/09 00:01:22;;;;;;;16.88;9.55;;;;;;;;;;5058142;28;20400;-73
2021/04/09 00:03:48;;;;;;;27.77;9.88;;;;;;;;;;5063972;28;20047;-73
2021/04/09 00:06:14;;;;;;;20.85;9.68;;;;;;;;;;5067640;28;20045;-73
2021/04/09 00:08:41;;;;;;;19.60;8.80;;;;;;;;;;5064288;28;20048;-73
2021/04/09 00:11:07;;;;;;;17.45;10.40;;;;;;;;;;5068412;28;20044;-73
2021/04/09 00:13:33;;;;;;;17.98;10.02;;;;;;;;;;5057991;28;20048;-73
2021/04/09 00:16:00;;;;;;;20.98;10.25;;;;;;;;;;5063284;28;20506;-73
2021/04/09 00:18:26;;;;;;;18.27;9.73;;;;;;;;;;5064484;28;20041;-73
2021/04/09 00:20:52;;;;;;;17.45;9.80;;;;;;;;;;5066156;28;20369;-73
2021/04/09 00:23:18;;;;;;;20.33;10.00;;;;;;;;;;5060980;28;20536;-73
2021/04/09 00:25:44;;;;;;;18.02;10.60;;;;;;;;;;5064348;28;20087;-73
2021/04/09 00:28:11;;;;;;;17.40;9.48;;;;;;;;;;5055836;28;20614;-73
2021/04/09 00:30:38;;;;;;;19.95;10.10;;;;;;;;;;5059227;28;20044;-73
2021/04/09 00:33:04;;;;;;;19.23;9.70;;;;;;;;;;5059804;28;20041;-73
2021/04/09 00:35:30;;;;;;;19.42;9.65;;;;;;;;;;5062231;28;20049;-73
2021/04/09 00:37:56;;;;;;;17.00;10.02;;;;;;;;;;5056980;28;20044;-73
2021/04/09 00:40:24;;;;;;;20.42;10.23;;;;;;;;;;5058003;28;20045;-73
2021/04/09 00:42:50;;;;;;;19.70;10.38;;;;;;;;;;5058040;28;20108;-73
2021/04/09 00:45:17;;;;;;;24.30;11.75;;;;;;;;;;5060565;28;20122;-73
2021/04/09 00:47:43;;;;;;;22.75;11.02;;;;;;;;;;5058018;28;20040;-73
2021/04/09 00:50:10;;;;;;;21.13;12.52;;;;;;;;;;5056551;28;20539;-73
2021/04/09 00:52:38;;;;;;;18.63;10.25;;;;;;;;;;5057994;28;20139;-73
2021/04/09 00:55:05;;;;;;;19.65;9.88;;;;;;;;;;5059606;28;20052;-73
2021/04/09 00:57:31;;;;;;;20.85;10.63;;;;;;;;;;5055879;28;20120;-73
2021/04/09 00:59:58;;;;;;;23.23;10.70;;;;;;;;;;5059768;28;20107;-73
2021/04/09 01:02:24;;;;;;;20.13;10.98;;;;;;;;;;5059942;28;20068;-73
2021/04/09 01:04:51;;;;;;;19.00;10.43;;;;;;;;;;5056742;28;20432;-73
2021/04/09 01:07:18;;;;;;;17.42;10.68;;;;;;;;;;5061405;28;20099;-73
2021/04/09 01:09:44;;;;;;;17.65;11.05;;;;;;;;;;5056112;28;20060;-73
2021/04/09 01:12:11;;;;;;;20.60;11.68;;;;;;;;;;5064607;28;20086;-73
2021/04/09 01:14:37;;;;;;;19.30;12.90;;;;;;;;;;5070864;28;20163;-73
2021/04/09 01:17:12;;;;;;;19.23;12.25;;;;;;;;;;5065416;28;20060;-73
2021/04/09 01:19:49;;;;;;;22.00;11.93;;;;;;;;;;5056389;28;20500;-73
2021/04/09 01:22:17;;;;;;;19.42;10.70;;;;;;;;;;5060095;28;20040;-73
2021/04/09 01:25:02;;;;;;;21.83;11.70;;;;;;;;;;5057714;28;20068;-73
2021/04/09 01:27:38;;;;;;;21.02;11.77;;;;;;;;;;5062247;28;20111;-73
2021/04/09 01:30:15;;;;;;;22.70;12.02;;;;;;;;;;5056707;28;20053;-73
2021/04/09 01:32:42;;;;;;;19.63;11.88;;;;;;;;;;5059244;28;20839;-73
2021/04/09 01:35:11;;;;;;;19.85;11.95;;;;;;;;;;5065628;28;20396;-73
2021/04/09 01:37:39;;;;;;;22.85;12.05;;;;;;;;;;5070000;28;20036;-73
2021/04/09 01:40:14;;;;;;;22.48;12.90;;;;;;;;;;5065054;28;20050;-73
2021/04/09 01:42:41;;;;;;;32.20;12.57;;;;;;;;;;5069662;28;20135;-73
2021/04/09 01:45:09;;;;;;;22.58;12.52;;;;;;;;;;5061030;28;20041;-73
2021/04/09 01:47:36;;;;;;;20.70;12.23;;;;;;;;;;5070870;28;20079;-73
2021/04/09 01:50:03;;;;;;;19.10;12.32;;;;;;;;;;5069292;28;20041;-73
2021/04/09 01:52:32;;;;;;;22.15;12.15;;;;;;;;;;5066978;28;20041;-73
2021/04/09 01:54:59;;;;;;;19.40;11.98;;;;;;;;;;5063190;28;20069;-73
2021/04/09 01:57:26;;;;;;;26.25;13.05;;;;;;;;;;5067119;28;20457;-73
2021/04/09 01:59:53;;;;;;;19.73;12.43;;;;;;;;;;5060595;28;20112;-73
2021/04/09 02:02:20;;;;;;;27.00;12.45;;;;;;;;;;5057817;28;20047;-73
2021/04/09 02:04:46;;;;;;;24.08;12.27;;;;;;;;;;5059692;28;20503;-73
2021/04/09 02:07:17;;;;;;;24.27;12.90;;;;;;;;;;5082898;28;20037;-73
2021/04/09 02:09:44;;;;;;;20.63;12.63;;;;;;;;;;5065888;28;20044;-74
2021/04/09 02:12:11;;;;;;;32.10;12.23;;;;;;;;;;5069304;28;20040;-73
2021/04/09 02:14:38;;;;;;;22.17;11.27;;;;;;;;;;5065389;28;20058;-73
2021/04/09 02:17:05;;;;;;;19.48;11.50;;;;;;;;;;5071415;28;20207;-73
2021/04/09 02:19:31;;;;;;;32.95;13.27;;;;;;;;;;5068104;28;20040;-73
2021/04/09 02:21:59;;;;;;;19.85;11.75;;;;;;;;;;5066789;28;21242;-74
2021/04/09 02:24:25;;;;;;;22.73;12.30;;;;;;;;;;5067727;28;20059;-73
2021/04/09 02:26:51;;;;;;;18.25;11.57;;;;;;;;;;5068606;28;20098;-73
2021/04/09 02:29:18;;;;;;;22.27;12.00;;;;;;;;;;5068900;28;20041;-73
2021/04/09 02:31:46;;;;;;;23.73;13.50;;;;;;;;;;5065926;28;20041;-74
2021/04/09 02:34:12;;;;;;;25.98;11.75;;;;;;;;;;5061628;28;20551;-73
2021/04/09 02:36:39;;;;;;;18.65;11.13;;;;;;;;;;5055793;28;20056;-73
2021/04/09 02:39:08;;;;;;;23.65;12.25;;;;;;;;;;5069641;28;20044;-73
2021/04/09 02:41:36;;;;;;;20.63;12.30;;;;;;;;;;5068758;28;20045;-73
2021/04/09 02:44:03;;;;;;;22.25;11.60;;;;;;;;;;5067625;28;20037;-73
2021/04/09 02:46:38;;;;;;;22.75;12.20;;;;;;;;;;5068764;28;20076;-73
2021/04/09 02:49:09;;;;;;;24.23;12.40;;;;;;;;;;5060494;28;20435;-73
2021/04/09 02:51:35;;;;;;;25.23;11.85;;;;;;;;;;5064227;28;20056;-73
2021/04/09 02:54:02;;;;;;;22.95;11.45;;;;;;;;;;5062314;28;20041;-73
2021/04/09 02:56:29;;;;;;;21.67;11.15;;;;;;;;;;5056986;28;20048;-73
2021/04/09 02:58:56;;;;;;;23.10;11.93;;;;;;;;;;5064690;28;20120;-73
2021/04/09 03:01:24;;;;;;;25.65;12.55;;;;;;;;;;5061251;28;20060;-73
2021/04/09 03:03:51;;;;;;;24.65;11.77;;;;;;;;;;5058764;28;20178;-73
2021/04/09 03:06:17;;;;;;;23.88;12.82;;;;;;;;;;5057940;28;20425;-73
2021/04/09 03:08:44;;;;;;;24.90;13.15;;;;;;;;;;5058399;28;20041;-74
2021/04/09 03:11:10;;;;;;;21.30;13.20;;;;;;;;;;5062733;28;20087;-74
2021/04/09 03:13:37;;;;;;;20.60;14.27;;;;;;;;;;5061415;28;20488;-73
2021/04/09 03:16:04;;;;;;;25.80;12.60;;;;;;;;;;5063598;28;20048;-73
2021/04/09 03:18:33;;;;;;;26.08;12.25;;;;;;;;;;5059752;28;20109;-73
2021/04/09 03:21:00;;;;;;;32.10;13.25;;;;;;;;;;5057853;28;20330;-73
2021/04/09 03:23:26;;;;;;;25.23;13.73;;;;;;;;;;5065847;28;20067;-73
2021/04/09 03:25:52;;;;;;;23.33;13.68;;;;;;;;;;5060637;28;20052;-73
2021/04/09 03:28:18;;;;;;;26.15;13.40;;;;;;;;;;5061641;28;20071;-73
2021/04/09 03:30:49;;;;;;;26.05;13.82;;;;;;;;;;5062883;28;20045;-73
2021/04/09 03:33:20;;;;;;;26.45;14.15;;;;;;;;;;5051113;28;20455;-73
2021/04/09 03:35:46;;;;;;;31.05;14.43;;;;;;;;;;5061936;28;20129;-73
2021/04/09 03:38:14;;;;;;;26.73;13.45;;;;;;;;;;5062304;28;20086;-73
2021/04/09 03:40:40;;;;;;;29.73;15.10;;;;;;;;;;5072917;28;20067;-73
2021/04/09 03:43:08;;;;;;;23.45;14.05;;;;;;;;;;5062707;28;20074;-73
2021/04/09 03:45:34;;;;;;;28.88;14.88;;;;;;;;;;5074245;28;20091;-73
2021/04/09 03:48:00;;;;;;;28.75;14.75;;;;;;;;;;5060507;28;21534;-73
2021/04/09 03:50:27;;;;;;;25.05;14.63;;;;;;;;;;5059245;28;20049;-73
2021/04/09 03:52:53;;;;;;;25.05;14.30;;;;;;;;;;5061436;28;20206;-73
2021/04/09 03:55:19;;;;;;;28.58;15.15;;;;;;;;;;5057052;28;20103;-73
2021/04/09 03:57:45;;;;;;;30.40;14.10;;;;;;;;;;5058435;28;20032;-73
2021/04/09 04:00:12;;;;;;;26.73;14.18;;;;;;;;;;5065376;28;20040;-73
2021/04/09 04:02:38;;;;;;;26.90;14.30;;;;;;;;;;5065065;28;20031;-73
2021/04/09 04:05:05;;;;;;;24.70;13.18;;;;;;;;;;5067323;28;20048;-73
2021/04/09 04:07:31;;;;;;;24.60;13.68;;;;;;;;;;5063712;28;20037;-73
2021/04/09 04:09:57;;;;;;;23.70;12.77;;;;;;;;;;5068312;28;20053;-73
2021/04/09 04:12:24;;;;;;;26.58;13.85;;;;;;;;;;5064641;28;20542;-73
2021/04/09 04:14:50;;;;;;;31.05;13.27;;;;;;;;;;5065892;28;20040;-73
2021/04/09 04:17:16;;;;;;;28.98;13.88;;;;;;;;;;5066760;28;20049;-73
2021/04/09 04:19:42;;;;;;;25.70;13.00;;;;;;;;;;5062275;28;20498;-74
2021/04/09 04:22:08;;;;;;;30.90;13.30;;;;;;;;;;5053222;28;20041;-73
2021/04/09 04:24:35;;;;;;;32.28;14.55;;;;;;;;;;5062300;28;20155;-73
2021/04/09 04:27:01;;;;;;;37.00;13.73;;;;;;;;;;5067761;28;20115;-73
2021/04/09 04:29:27;;;;;;;25.77;12.80;;;;;;;;;;5063322;28;20036;-73
2021/04/09 04:31:53;;;;;;;32.75;13.48;;;;;;;;;;5061726;28;20109;-74
2021/04/09 04:34:20;;;;;;;28.75;12.82;;;;;;;;;;5056599;28;20048;-73
2021/04/09 04:36:47;;;;;;;32.58;12.68;;;;;;;;;;5059277;28;20542;-73
2021/04/09 04:39:13;;;;;;;22.88;11.73;;;;;;;;;;5053456;28;20037;-73
2021/04/09 04:41:39;;;;;;;28.83;12.18;;;;;;;;;;5066169;28;20044;-73
2021/04/09 04:44:06;;;;;;;29.35;12.48;;;;;;;;;;5057548;28;20155;-73
2021/04/09 04:46:32;;;;;;;26.98;9.98;;;;;;;;;;5059507;28;20052;-73
2021/04/09 04:48:58;;;;;;;33.10;11.10;;;;;;;;;;5056819;28;20071;-75
2021/04/09 04:51:25;;;;;;;28.42;10.27;;;;;;;;;;5059566;28;20060;-75
2021/04/09 04:53:51;;;;;;;25.75;10.07;;;;;;;;;;5056714;28;20048;-74
2021/04/09 04:56:17;;;;;;;29.55;10.90;;;;;;;;;;5059932;28;20106;-74
2021/04/09 04:58:43;;;;;;;22.50;8.85;;;;;;;;;;5062580;28;20041;-73
2021/04/09 05:01:10;;;;;;;26.98;9.40;;;;;;;;;;5059090;28;20032;-74
2021/04/09 05:03:36;;;;;;;31.95;9.18;;;;;;;;;;5061875;28;20068;-73
2021/04/09 05:06:02;;;;;;;32.10;9.90;;;;;;;;;;5061169;28;20071;-73
2021/04/09 05:08:29;;;;;;;39.20;9.38;;;;;;;;;;5058173;28;20452;-74
2021/04/09 05:10:55;;;;;;;23.45;8.32;;;;;;;;;;5049328;28;20202;-73
2021/04/09 05:13:21;;;;;;;27.52;8.30;;;;;;;;;;5053547;28;20477;-74
2021/04/09 05:15:48;;;;;;;21.67;8.20;;;;;;;;;;5060230;28;20061;-74
2021/04/09 05:18:14;;;;;;;27.30;9.15;;;;;;;;;;5060311;28;20040;-74
2021/04/09 05:20:40;;;;;;;25.80;8.60;;;;;;;;;;5059768;28;20067;-74
2021/04/09 05:23:06;;;;;;;32.10;8.25;;;;;;;;;;5064872;28;20500;-75
2021/04/09 05:25:32;;;;;;;23.35;8.90;;;;;;;;;;5059567;28;20033;-73
2021/04/09 05:27:59;;;;;;;33.95;9.00;;;;;;;;;;5059292;28;20053;-73
2021/04/09 05:30:25;;;;;;;39.40;8.38;;;;;;;;;;5060679;28;20095;-73
2021/04/09 05:32:53;;;;;;;38.47;8.23;;;;;;;;;;5056392;28;20044;-73
2021/04/09 05:35:21;;;;;;;25.38;9.60;;;;;;;;;;5065580;28;20053;-74
2021/04/09 05:37:48;;;;;;;21.40;6.97;;;;;;;;;;5063827;28;20472;-74
2021/04/09 05:40:15;;;;;;;30.75;7.85;;;;;;;;;;5068728;28;20461;-74
2021/04/09 05:42:41;;;;;;;25.13;7.55;;;;;;;;;;5077798;28;20467;-73
2021/04/09 05:45:08;;;;;;;23.05;7.68;;;;;;;;;;5073727;28;20036;-73
2021/04/09 05:47:34;;;;;;;28.63;7.70;;;;;;;;;;5072734;28;20043;-73
2021/04/09 05:50:00;;;;;;;31.83;7.90;;;;;;;;;;5074615;28;20469;-73
2021/04/09 05:52:27;;;;;;;26.08;6.88;;;;;;;;;;5072659;28;20049;-73
2021/04/09 05:54:53;;;;;;;21.25;7.05;;;;;;;;;;5073278;28;20482;-73
2021/04/09 05:57:19;;;;;;;25.02;6.40;;;;;;;;;;5073580;28;20047;-73
2021/04/09 05:59:47;;;;;;;17.90;6.07;;;;;;;;;;5072193;28;20033;-73
2021/04/09 06:02:13;;;;;;;32.55;7.07;;;;;;;;;;5073364;28;20051;-73
2021/04/09 06:04:40;;;;;;;23.23;6.30;;;;;;;;;;5059614;28;20077;-73
2021/04/09 06:07:06;;;;;;;24.15;6.40;;;;;;;;;;5072455;28;20040;-73
2021/04/09 06:09:32;;;;;;;19.80;7.13;;;;;;;;;;5072823;28;20475;-74
2021/04/09 06:11:59;;;;;;;23.60;6.60;;;;;;;;;;5073390;28;20123;-73
2021/04/09 06:14:26;;;;;;;27.70;7.38;;;;;;;;;;5079670;28;20462;-73
2021/04/09 06:16:53;;;;;;;18.33;6.13;;;;;;;;;;5087507;28;20088;-73
2021/04/09 06:19:19;;;;;;;41.83;9.00;;;;;;;;;;5087058;28;20109;-73
2021/04/09 06:21:45;;;;;;;22.85;6.97;;;;;;;;;;5074232;28;20426;-73
2021/04/09 06:24:12;;;;;;;26.65;7.20;;;;;;;;;;5093838;28;20086;-73
2021/04/09 06:26:38;;;;;;;31.80;7.07;;;;;;;;;;5093500;28;20040;-73
2021/04/09 06:29:04;;;;;;;23.52;8.18;;;;;;;;;;5092753;28;20483;-73
2021/04/09 06:31:30;;;;;;;21.35;7.18;;;;;;;;;;5093639;28;20131;-73
2021/04/09 06:33:57;;;;;;;29.67;7.80;;;;;;;;;;5068332;28;20047;-73
2021/04/09 06:36:23;;;;;;;23.42;7.15;;;;;;;;;;5092535;28;20152;-73
2021/04/09 06:38:50;;;;;;;24.92;6.43;;;;;;;;;;5093246;28;20123;-73
2021/04/09 06:41:17;;;;;;;26.60;7.22;;;;;;;;;;5093530;28;20060;-73
2021/04/09 06:43:44;;;;;;;29.33;6.97;;;;;;;;;;5084767;28;20040;-73
2021/04/09 06:46:10;;;;;;;20.23;6.30;;;;;;;;;;5065322;28;20060;-73
2021/04/09 06:48:36;;;;;;;26.80;6.43;;;;;;;;;;5092842;28;20048;-73
2021/04/09 06:51:03;;;;;;;24.13;7.22;;;;;;;;;;5093110;28;20351;-73
2021/04/09 06:53:29;;;;;;;35.80;9.32;;;;;;;;;;5089164;28;20043;-73
2021/04/09 06:55:56;;;;;;;28.13;8.80;;;;;;;;;;5087073;28;20171;-73
2021/04/09 06:58:24;;;;;;;18.60;6.82;;;;;;;;;;5091640;28;20040;-73
2021/04/09 07:00:51;;;;;;;19.30;6.35;;;;;;;;;;5092788;28;20062;-73
2021/04/09 07:03:18;;;;;;;23.73;7.35;;;;;;;;;;5083530;28;20041;-73
2021/04/09 07:05:44;;;;;;;21.20;6.88;;;;;;;;;;5061660;28;20146;-73
2021/04/09 07:08:10;;;;;;;19.48;6.63;;;;;;;;;;5092141;28;20044;-73
2021/04/09 07:10:36;;;;;;;16.38;6.38;;;;;;;;;;5083499;28;20177;-73
2021/04/09 07:13:03;;;;;;;30.85;7.40;;;;;;;;;;5091420;28;20492;-73
2021/04/09 07:15:36;;;;;;;26.17;7.35;;;;;;;;;;5080218;28;20056;-73
2021/04/09 07:18:03;;;;;;;23.35;6.85;;;;;;;;;;5088105;28;20490;-73
2021/04/09 07:20:30;;;;;;;25.80;6.95;;;;;;;;;;5092527;28;20557;-73
2021/04/09 07:22:57;;;;;;;26.33;7.22;;;;;;;;;;5092766;28;20075;-73
2021/04/09 07:25:25;;;;;;;16.67;5.50;;;;;;;;;;5091907;28;20047;-73
2021/04/09 07:28:07;;;;;;;26.88;7.05;;;;;;;;;;5092498;28;20340;-73
2021/04/09 07:30:34;;;;;;;26.63;5.97;;;;;;;;;;5086825;28;20040;-73
2021/04/09 07:33:19;;;;;;;24.65;5.95;;;;;;;;;;5081379;28;20036;-73
2021/04/09 07:35:47;;;;;;;29.90;7.18;;;;;;;;;;5091795;28;20112;-73
2021/04/09 07:38:18;;;;;;;16.27;5.90;;;;;;;;;;5090323;28;20056;-73
2021/04/09 07:40:51;;;;;;;21.52;5.90;;;;;;;;;;5089365;28;20040;-73
2021/04/09 07:43:17;;;;;;;22.80;6.95;;;;;;;;;;5061222;28;20111;-73
2021/04/09 07:45:43;;;;;;;25.25;6.15;;;;;;;;;;5080432;28;21495;-75
2021/04/09 07:48:10;;;;;;;24.75;7.43;;;;;;;;;;5088485;28;20415;-75
2021/04/09 07:50:39;;;;;;;19.88;6.85;;;;;;;;;;5090345;28;20452;-75
2021/04/09 07:53:06;;;;;;;26.95;7.68;;;;;;;;;;5079141;28;20048;-75
2021/04/09 07:55:33;;;;;;;27.60;6.55;;;;;;;;;;5091676;28;20123;-72
2021/04/09 07:58:15;;;;;;;20.27;5.80;;;;;;;;;;5091445;28;20036;-73
2021/04/09 08:00:41;;;;;;;25.63;5.97;;;;;;;;;;5070439;28;20040;-73
2021/04/09 08:03:08;;;;;;;24.08;6.57;;;;;;;;;;5068607;28;20084;-73
2021/04/09 08:05:34;;;;;;;22.25;6.07;;;;;;;;;;5069984;28;20062;-73
2021/04/09 08:08:01;;;;;;;22.13;5.70;;;;;;;;;;5069847;28;20159;-84
2021/04/09 08:10:29;;;;;;;22.60;6.05;;;;;;;;;;5068479;28;20043;-84
2021/04/09 08:12:56;;;;;;;22.17;5.47;;;;;;;;;;5070956;28;20115;-83
2021/04/09 08:15:29;;;;;;;21.48;5.35;;;;;;;;;;5067558;28;20075;-84
2021/04/09 08:17:57;;;;;;;20.85;6.32;;;;;;;;;;5070964;28;20032;-71
2021/04/09 08:20:24;;;;;;;21.67;6.00;;;;;;;;;;5071788;28;20094;-71
2021/04/09 08:22:50;;;;;;;16.63;5.45;;;;;;;;;;5073008;28;20037;-72
2021/04/09 08:25:17;;;;;;;27.75;6.32;;;;;;;;;;5070014;28;20064;-72
2021/04/09 08:27:44;;;;;;;19.13;4.90;;;;;;;;;;5069668;28;20486;-86
2021/04/09 08:30:10;;;;;;;17.55;5.30;;;;;;;;;;5064201;28;20488;-85
2021/04/09 08:32:37;;;;;;;23.90;5.03;;;;;;;;;;5063026;28;20470;-85
2021/04/09 08:35:05;;;;;;;20.00;5.40;;;;;;;;;;5069608;28;20131;-85
2021/04/09 08:37:32;;;;;;;17.05;4.53;;;;;;;;;;5069605;28;20090;-85
2021/04/09 08:39:58;;;;;;;18.77;5.70;;;;;;;;;;5069153;28;20062;-85
2021/04/09 08:42:25;;;;;;;17.00;5.88;;;;;;;;;;5071707;28;20131;-84
2021/04/09 08:44:51;;;;;;;19.52;4.93;;;;;;;;;;5068447;28;20040;-85
2021/04/09 08:47:19;;;;;;;23.00;5.68;;;;;;;;;;5068085;28;20234;-85
2021/04/09 08:49:46;;;;;;;26.35;4.60;;;;;;;;;;5068188;28;20041;-85
2021/04/09 08:52:13;;;;;;;14.63;4.38;;;;;;;;;;5070131;28;20041;-86
2021/04/09 08:54:50;;;;;;;22.30;4.80;;;;;;;;;;5070161;28;20425;-71
2021/04/09 08:57:27;;;;;;;22.50;6.50;;;;;;;;;;5081763;28;20055;-71
2021/04/09 09:00:03;;;;;;;18.08;4.38;;;;;;;;;;5069743;28;20158;-72
2021/04/09 09:02:38;;;;;;;25.02;6.45;;;;;;;;;;5085071;28;20040;-72
2021/04/09 09:05:06;;;;;;;17.42;4.45;;;;;;;;;;5077863;28;20557;-72
2021/04/09 09:07:56;;;;;;;17.55;4.88;;;;;;;;;;5086036;28;20036;-71
2021/04/09 09:10:42;;;;;;;16.63;4.57;;;;;;;;;;5071354;28;20048;-72
2021/04/09 09:13:09;;;;;;;17.83;4.05;;;;;;;;;;5086033;28;20036;-72
2021/04/09 09:15:42;;;;;;;22.02;4.65;;;;;;;;;;5087655;28;20127;-72
2021/04/09 09:18:43;;;;;;;19.00;4.25;;;;;;;;;;5084934;28;20116;-72
2021/04/09 09:21:24;;;;;;;17.95;4.50;;;;;;;;;;5084124;28;20528;-72
2021/04/09 09:23:56;;;;;;;17.42;4.25;;;;;;;;;;5089321;28;20441;-72
2021/04/09 09:26:30;;;;;;;13.52;4.88;;;;;;;;;;5090604;28;20093;-72
2021/04/09 09:29:07;;;;;;;12.35;4.63;;;;;;;;;;5090014;28;20138;-72
2021/04/09 09:31:34;;;;;;;16.20;5.18;;;;;;;;;;5082819;28;20044;-72
2021/04/09 09:34:17;;;;;;;13.98;4.00;;;;;;;;;;5090081;28;20084;-72
2021/04/09 09:37:00;;;;;;;15.57;4.63;;;;;;;;;;5090054;28;20067;-71
2021/04/09 09:39:36;;;;;;;26.13;4.50;;;;;;;;;;5060707;28;20101;-75
2021/04/09 09:42:03;;;;;;;22.33;4.93;;;;;;;;;;5069188;28;20140;-76
2021/04/09 09:44:32;;;;;;;17.25;4.35;;;;;;;;;;5066293;28;20064;-75
2021/04/09 09:46:59;;;;;;;14.13;3.63;;;;;;;;;;5069410;28;20434;-86
2021/04/09 09:49:26;;;;;;;9.63;3.58;;;;;;;;;;5070097;28;20086;-86
2021/04/09 09:51:52;;;;;;;15.70;4.10;;;;;;;;;;5069050;28;20439;-85
2021/04/09 09:54:26;;;;;;;14.38;4.30;;;;;;;;;;5069818;28;20463;-86
2021/04/09 09:56:53;;;;;;;14.80;4.22;;;;;;;;;;5065736;28;20447;-87
2021/04/09 09:59:20;;;;;;;23.33;5.38;;;;;;;;;;5067196;28;20071;-87
2021/04/09 10:01:50;;;;;;;12.80;3.53;;;;;;;;;;5069305;28;20495;-86
2021/04/09 10:04:17;;;;;;;12.52;3.33;;;;;;;;;;5069656;28;20090;-86
2021/04/09 10:06:51;;;;;;;10.80;3.35;;;;;;;;;;5065062;28;20056;-86
2021/04/09 10:09:17;;;;;;;;;;;;;;;;;;5066803;28;20062;-72
2021/04/09 10:11:45;;;;;;;14.63;3.33;;;;;;;;;;5069064;28;19943;-71
2021/04/09 10:14:11;;;;;;;14.00;4.25;;;;;;;;;;5068800;28;20041;-71
2021/04/09 10:16:38;;;;;;;13.75;3.92;;;;;;;;;;5063942;28;20093;-70
2021/04/09 10:19:06;;;;;;;14.98;4.25;;;;;;;;;;5066067;28;20047;-71
2021/04/09 10:21:33;;;;;;;16.65;4.53;;;;;;;;;;5065640;28;20098;-72
2021/04/09 10:24:10;;;;;;;13.98;4.15;;;;;;;;;;5066326;28;20199;-72
2021/04/09 10:26:37;;;;;;;21.50;4.38;;;;;;;;;;5057171;28;20037;-72
2021/04/09 10:29:17;;;;;;;17.85;4.75;;;;;;;;;;5070093;28;20090;-72
2021/04/09 10:31:44;;;;;;;15.73;3.88;;;;;;;;;;5067348;28;20032;-72
2021/04/09 10:34:10;;;;;;;13.85;3.65;;;;;;;;;;5068375;28;20133;-72
2021/04/09 10:36:36;;;;;;;14.68;3.25;;;;;;;;;;5068587;28;20061;-72
2021/04/09 10:39:11;;;;;;;19.23;5.15;;;;;;;;;;5070322;28;20063;-72
2021/04/09 10:41:38;;;;;;;18.00;3.47;;;;;;;;;;5083473;28;20105;-72
2021/04/09 10:44:13;;;;;;;17.20;4.07;;;;;;;;;;5075065;28;20051;-72
2021/04/09 10:46:41;;;;;;;16.92;5.05;;;;;;;;;;5066996;28;20033;-72
2021/04/09 10:49:10;;;;;;;16.27;4.07;;;;;;;;;;5070414;28;20121;-73
2021/04/09 10:51:40;;;;;;;16.55;4.05;;;;;;;;;;5067893;28;20052;-73
2021/04/09 10:54:07;;;;;;;13.82;4.00;;;;;;;;;;5070398;28;20122;-72
2021/04/09 10:56:33;;;;;;;12.90;3.80;;;;;;;;;;5070139;28;20044;-73
2021/04/09 10:59:00;;;;;;;15.63;3.97;;;;;;;;;;5073331;28;20040;-72
2021/04/09 11:01:26;;;;;;;17.05;3.72;;;;;;;;;;5068071;28;20403;-72
2021/04/09 11:03:53;;;;;;;21.02;4.10;;;;;;;;;;5070923;28;20411;-72
2021/04/09 11:06:21;;;;;;;14.30;4.57;;;;;;;;;;5075883;28;20044;-72
2021/04/09 11:08:55;;;;;;;16.90;3.70;;;;;;;;;;5081188;28;20040;-72
2021/04/09 11:11:27;;;;;;;15.55;4.22;;;;;;;;;;5065072;28;20068;-72
2021/04/09 11:13:59;;;;;;;15.88;3.60;;;;;;;;;;5073854;28;20072;-71
2021/04/09 11:16:25;;;;;;;13.25;3.67;;;;;;;;;;5077228;28;20033;-71
2021/04/09 11:18:54;;;;;;;23.15;5.68;;;;;;;;;;5055603;28;20037;-71
2021/04/09 11:21:39;;;;;;;14.90;4.38;;;;;;;;;;5054449;28;20144;-71
2021/04/09 11:24:05;;;;;;;21.30;5.22;;;;;;;;;;5062859;28;20044;-71
2021/04/09 11:26:34;;;;;;;22.92;4.32;;;;;;;;;;5071771;28;20048;-71
2021/04/09 11:29:01;;;;;;;17.13;5.45;;;;;;;;;;5068598;28;20179;-71
2021/04/09 11:31:27;;;;;;;16.55;4.38;;;;;;;;;;5054203;28;20049;-71
2021/04/09 11:34:05;;;;;;;17.30;4.30;;;;;;;;;;5070112;28;20165;-71
2021/04/09 11:36:38;;;;;;;13.32;3.95;;;;;;;;;;5052079;28;20045;-72
2021/04/09 11:39:09;;;;;;;18.08;4.20;;;;;;;;;;5040337;28;20060;-71
2021/04/09 11:41:36;;;;;;;15.98;4.13;;;;;;;;;;5045521;28;20048;-72
2021/04/09 11:44:25;;;;;;;18.25;4.28;;;;;;;;;;5034897;28;20103;-72
2021/04/09 11:46:52;;;;;;;13.00;3.97;;;;;;;;;;5038070;28;20125;-71
2021/04/09 11:49:27;;;;;;;13.65;3.60;;;;;;;;;;5036805;28;20106;-72
2021/04/09 11:52:01;;;;;;;15.23;3.47;;;;;;;;;;5044048;28;20044;-71
2021/04/09 11:54:32;;;;;;;19.85;4.47;;;;;;;;;;5034923;28;20070;-72
2021/04/09 11:56:59;;;;;;;17.05;4.72;;;;;;;;;;5035303;28;20165;-62
2021/04/09 11:59:26;;;;;;;15.70;3.33;;;;;;;;;;5044582;28;20123;-67
2021/04/09 12:01:53;;;;;;;13.48;3.80;;;;;;;;;;5041022;28;20053;-71
2021/04/09 12:04:33;;;;;;;11.52;3.38;;;;;;;;;;5036868;28;20120;-65
2021/04/09 12:06:59;;;;;;;22.25;4.25;;;;;;;;;;5041795;28;20188;-63
2021/04/09 12:09:26;;;;;;;29.83;3.45;;;;;;;;;;5043380;28;20053;-68
2021/04/09 12:11:52;;;;;;;17.77;3.00;;;;;;;;;;5045737;28;20069;-68
2021/04/09 12:14:31;;;;;;;15.70;3.03;;;;;;;;;;5036750;28;20044;-69
2021/04/09 12:16:58;;;;;;;11.02;2.20;;;;;;;;;;5034455;28;20045;-69
2021/04/09 12:19:24;;;;;;;14.57;2.30;;;;;;;;;;5041598;28;20046;-68
2021/04/09 12:21:50;;;;;;;13.93;2.97;;;;;;;;;;5040936;28;20056;-83
2021/04/09 12:24:16;;;;;;;16.80;2.35;;;;;;;;;;5043443;28;20044;-84
2021/04/09 12:26:43;;;;;;;13.20;3.00;;;;;;;;;;5048417;28;20486;-83
2021/04/09 12:29:10;;;;;;;13.93;2.65;;;;;;;;;;5044744;28;20111;-84
2021/04/09 12:31:37;;;;;;;14.45;2.45;;;;;;;;;;5044641;28;20048;-90
2021/04/09 12:34:03;;;;;;;11.68;2.55;;;;;;;;;;5043734;28;20045;-81
2021/04/09 12:36:29;;;;;;;19.88;2.70;;;;;;;;;;5053304;28;20101;-81
2021/04/09 12:39:11;;;;;;;15.52;3.45;;;;;;;;;;5063434;28;20040;-81
2021/04/09 12:41:38;;;;;;;13.88;2.58;;;;;;;;;;5062355;28;20040;-81
2021/04/09 12:44:05;;;;;;;13.15;2.20;;;;;;;;;;5060003;28;20097;-81
2021/04/09 12:46:32;;;;;;;15.27;2.78;;;;;;;;;;5062320;28;20380;-81
2021/04/09 12:48:59;;;;;;;9.20;2.47;;;;;;;;;;5059977;28;20496;-81
2021/04/09 12:51:26;;;;;;;13.55;2.30;;;;;;;;;;5063336;28;20067;-81
2021/04/09 12:53:53;;;;;;;13.10;2.40;;;;;;;;;;5058809;28;20068;-81
2021/04/09 12:56:20;;;;;;;17.48;3.17;;;;;;;;;;5061707;28;20037;-82
2021/04/09 12:58:46;;;;;;;15.25;2.55;;;;;;;;;;5059798;28;20448;-81
2021/04/09 13:01:14;;;;;;;13.23;2.78;;;;;;;;;;5059766;28;20044;-82
2021/04/09 13:03:40;;;;;;;12.23;2.80;;;;;;;;;;5060553;28;20044;-81
2021/04/09 13:06:07;;;;;;;19.58;3.80;;;;;;;;;;5062348;28;20462;-81
2021/04/09 13:08:34;;;;;;;13.27;2.80;;;;;;;;;;5057063;28;20036;-81
2021/04/09 13:11:00;;;;;;;14.23;2.67;;;;;;;;;;5057152;28;20113;-80
2021/04/09 13:13:27;;;;;;;15.07;2.63;;;;;;;;;;5055521;28;20503;-83
2021/04/09 13:15:57;;;;;;;8.60;2.25;;;;;;;;;;5062884;28;20138;-91
2021/04/09 13:18:23;;;;;;;14.63;2.60;;;;;;;;;;5064262;28;20041;-83
2021/04/09 13:20:50;;;;;;;20.00;2.80;;;;;;;;;;5064343;28;20462;-83
2021/04/09 13:23:18;;;;;;;14.93;2.70;;;;;;;;;;5065001;28;20089;-82
2021/04/09 13:25:44;;;;;;;18.15;3.97;;;;;;;;;;5071311;28;20109;-83
2021/04/09 13:28:11;;;;;;;11.38;2.42;;;;;;;;;;5069736;28;20472;-82
2021/04/09 13:30:37;;;;;;;17.33;3.67;;;;;;;;;;5060075;28;20043;-82
2021/04/09 13:33:04;;;;;;;23.15;3.03;;;;;;;;;;5043933;28;20488;-83
2021/04/09 13:35:31;;;;;;;12.30;2.20;;;;;;;;;;5064554;28;20110;-82
2021/04/09 13:37:59;;;;;;;14.40;2.45;;;;;;;;;;5061250;28;20032;-83
2021/04/09 13:40:26;;;;;;;13.80;2.33;;;;;;;;;;5067124;28;20064;-83
2021/04/09 13:42:52;;;;;;;13.73;2.30;;;;;;;;;;5061154;28;20415;-83
2021/04/09 13:45:19;;;;;;;19.65;3.22;;;;;;;;;;5062361;28;20178;-83
2021/04/09 13:47:46;;;;;;;13.93;2.83;;;;;;;;;;5059028;28;20131;-83
2021/04/09 13:50:14;;;;;;;16.50;3.00;;;;;;;;;;5062654;28;20047;-85
2021/04/09 13:52:40;;;;;;;21.05;3.33;;;;;;;;;;5061745;28;20047;-82
2021/04/09 13:55:06;;;;;;;13.05;2.25;;;;;;;;;;5064482;28;20450;-84
2021/04/09 13:57:33;;;;;;;12.57;2.47;;;;;;;;;;5058995;28;20037;-82
2021/04/09 13:59:59;;;;;;;15.05;2.47;;;;;;;;;;5066449;28;20040;-82
2021/04/09 14:02:25;;;;;;;17.83;2.40;;;;;;;;;;5069418;28;20041;-82
2021/04/09 14:04:52;;;;;;;16.38;2.45;;;;;;;;;;5071254;28;20064;-82
2021/04/09 14:07:18;;;;;;;19.33;2.85;;;;;;;;;;5066204;28;20068;-82
2021/04/09 14:09:45;;;;;;;12.75;2.33;;;;;;;;;;5064415;28;20044;-82
2021/04/09 14:12:11;;;;;;;10.18;2.50;;;;;;;;;;5058797;28;20047;-80
2021/04/09 14:14:37;;;;;;;21.35;2.83;;;;;;;;;;5052301;28;20542;-82
2021/04/09 14:17:04;;;;;;;11.73;2.13;;;;;;;;;;5067761;28;20057;-82
2021/04/09 14:19:30;;;;;;;13.68;2.70;;;;;;;;;;5071472;28;20480;-83
2021/04/09 14:21:57;;;;;;;18.05;3.70;;;;;;;;;;5073908;28;20111;-82
2021/04/09 14:24:24;;;;;;;19.77;3.15;;;;;;;;;;5068304;28;20092;-82
2021/04/09 14:26:51;;;;;;;25.80;3.88;;;;;;;;;;5072202;28;20070;-82
2021/04/09 14:29:17;;;;;;;18.95;3.33;;;;;;;;;;5069677;28;20119;-82
2021/04/09 14:31:43;;;;;;;23.90;4.90;;;;;;;;;;5073709;28;20225;-80